Schenectady, New York
Current Conditions -  °F | °C
As of 1:03 AM on Friday 28 Nov 2014 (Local Time) from KALB Reporting Station
Light Snow Light Snow  
Wind Chill: 27°   Ceiling: 7000
Heat Index: 27°   Visibility: 9mi
Dew Point: 24°   Wind: 0mph
Humidity: 89%   Direction: NA
Pressure: 30.03"   Gusts: NA
Location:  42.81°N, 73.94°W
Report Text: KALB 280603Z 00000KT 9SM -SN VCFG FEW004 FEW018 OVC070 M03/M04 A3003 RMK AO2 P0000 T10281044
Loading
Personal Weather Stations






























Interactive Weather Map New forecast layout! Learn more

10-Day Weather Forecast

Advertisements
Track Severe Weather on mobile